Latest Weather Observations for Lady Elliot Island

IDQ60801

Issued at 12:02 pm EST Monday 29 August 2016 (issued every 30 minutes, with the page automatically refreshed every 10 minutes)

About weather observations | Map of weather stations | Latest weather observations for QLD | Other Formats
Station Details ID: 039059 Name: LADY ELLIOT ISLAND Lat: -24.11 Lon: 152.72 Height: 3.6 m
Data from the previous 72 hours. | See also: Recent months at Lady Elliot Island
Date/Time
EST
Temp
°C
App
Temp
°C
Dew
Point
°C
Rel
Hum
%
Delta-T
°C
Wind Press
QNH
hPa
Press
MSL
hPa
Rain since
9am
mm
Dir  Spd
km/h
Gust
km/h
Spd
kts
Gust
kts
29/12:00pm 23.4 20.9 13.6 54 5.7 ESE 19 26 10 14 1024.5 1024.5 0.0
29/11:30am 23.9 21.6 14.0 54 5.8 SE 19 24 10 13 1024.8 1024.8 0.0
29/11:00am 23.1 20.4 13.0 53 5.8 ESE 19 24 10 13 1024.9 1024.9 0.0
29/10:30am 23.3 21.3 13.8 55 5.5 ESE 17 22 9 12 1025.2 1025.2 0.0
29/10:00am 23.4 20.6 13.3 53 5.8 ESE 20 24 11 13 1025.2 1025.2 0.0
29/09:30am 22.8 20.1 13.6 56 5.3 ESE 20 26 11 14 1025.0 1025.0 0.0
29/09:00am 22.7 19.9 13.2 55 5.4 ESE 20 26 11 14 1024.9 1024.9 0.0
29/08:30am 22.2 19.4 12.7 55 5.4 ESE 19 24 10 13 1024.9 1024.9 0.0
29/08:00am 21.8 18.9 12.9 57 5.1 ESE 20 26 11 14 1024.5 1024.5 0.0
29/07:30am 21.1 18.0 12.3 57 5.0 ESE 20 28 11 15 1024.1 1024.1 0.0
29/07:00am 20.6 17.6 12.6 60 4.5 ESE 20 28 11 15 1023.7 1023.7 0.0
29/06:30am 20.1 17.3 13.1 64 4.0 ESE 20 28 11 15 1023.3 1023.3 0.0
29/06:00am 19.7 16.9 13.2 66 3.7 ESE 20 30 11 16 1022.9 1022.9 0.0
29/05:30am 19.7 15.8 12.2 62 4.2 ESE 24 30 13 16 1022.5 1022.5 0.0
29/05:00am 19.5 16.2 12.8 65 3.8 ESE 22 26 12 14 1022.1 1022.1 0.0
29/04:30am 19.5 15.8 12.8 65 3.8 ESE 24 28 13 15 1021.9 1021.9 0.0
29/04:00am 19.4 16.5 12.9 66 3.7 ESE 20 26 11 14 1021.7 1021.7 0.0
29/03:30am 19.4 16.0 12.4 64 3.9 ESE 22 28 12 15 1021.8 1021.8 0.0
29/03:00am 19.5 16.2 12.8 65 3.8 ESE 22 30 12 16 1021.9 1021.9 0.0
29/02:30am 19.5 16.3 13.0 66 3.7 ESE 22 28 12 15 1021.9 1021.9 0.0
29/02:00am 19.3 16.2 13.3 68 3.4 ESE 22 28 12 15 1022.1 1022.1 0.0
29/01:30am 19.4 15.8 12.9 66 3.7 ESE 24 30 13 16 1022.1 1022.1 0.0
29/01:00am 19.5 16.7 14.3 72 3.0 ESE 22 30 12 16 1022.4 1022.4 0.0
29/12:30am 19.4 16.0 13.8 70 3.2 ESE 24 32 13 17 1022.5 1022.5 0.0
29/12:00am 19.3 16.5 15.4 78 2.3 ESE 24 30 13 16 1022.3 1022.3 0.0
 
Date/Time
EST
Temp
°C
App
Temp
°C
Dew
Point
°C
Rel
Hum
%
Delta-T
°C
Wind Press
QNH
hPa
Press
MSL
hPa
Rain since
9am
mm
Dir  Spd
km/h
Gust
km/h
Spd
kts
Gust
kts
28/11:30pm 19.2 17.0 15.9 81 2.0 SE 22 30 12 16 1022.6 1022.6 0.0
28/11:00pm 19.1 17.2 15.8 81 1.9 SE 20 26 11 14 1022.9 1022.9 0.0
28/10:30pm 19.1 17.1 15.6 80 2.1 SE 20 24 11 13 1022.8 1022.8 0.0
28/10:00pm 19.0 16.9 15.1 78 2.3 SE 20 26 11 14 1022.8 1022.8 0.0
28/09:30pm 19.0 16.7 14.7 76 2.5 SE 20 26 11 14 1022.9 1022.9 0.0
28/09:00pm 19.0 16.8 14.3 74 2.7 SE 19 26 10 14 1022.9 1022.9 0.0
28/08:30pm 18.9 17.0 14.2 74 2.7 SE 17 22 9 12 1022.8 1022.8 0.0
28/08:00pm 18.7 16.5 13.3 71 3.0 ESE 17 20 9 11 1022.6 1022.6 0.0
28/07:30pm 18.6 17.2 13.5 72 2.9 SE 13 17 7 9 1022.3 1022.3 0.0
28/07:00pm 18.4 16.9 13.1 71 3.0 SE 13 17 7 9 1022.2 1022.2 0.0
28/06:30pm 18.3 17.4 12.7 70 3.1 SE 9 13 5 7 1022.1 1022.1 0.0
28/06:00pm 18.4 17.4 12.4 68 3.3 SSE 9 13 5 7 1021.8 1021.8 0.0
28/05:30pm 19.0 18.0 12.3 65 3.7 S 9 15 5 8 1021.6 1021.6 0.0
28/05:00pm 19.6 18.4 11.6 60 4.4 S 9 13 5 7 1021.4 1021.4 0.0
28/04:30pm 20.1 18.5 11.6 58 4.7 S 11 19 6 10 1021.4 1021.4 0.0
28/04:00pm 20.4 18.4 11.6 57 4.9 S 13 15 7 8 1021.3 1021.3 0.0
28/03:30pm 20.6 18.5 11.2 55 5.2 SSW 13 17 7 9 1021.4 1021.4 0.0
28/03:00pm 20.7 18.6 11.1 54 5.3 S 13 17 7 9 1021.4 1021.4 0.0
28/02:30pm 21.1 18.8 11.7 55 5.2 S 15 22 8 12 1021.5 1021.5 0.0
28/02:00pm 21.0 18.4 11.9 56 5.1 S 17 20 9 11 1021.6 1021.6 0.0
28/01:30pm 21.1 18.0 11.7 55 5.2 SSW 19 24 10 13 1021.7 1021.7 0.0
28/01:00pm 20.8 17.6 11.2 54 5.3 SSW 19 24 10 13 1022.1 1022.1 0.0
28/12:30pm 20.7 17.5 11.3 55 5.2 S 19 28 10 15 1022.4 1022.4 0.0
28/12:00pm 20.9 17.9 10.7 52 5.5 S 17 26 9 14 1022.7 1022.7 0.0
28/11:30am 21.2 18.7 12.3 57 5.0 S 17 26 9 14 1023.0 1023.0 0.0
28/11:00am 20.1 17.0 11.6 58 4.7 S 19 26 10 14 1023.2 1023.2 0.0
28/10:30am 20.4 17.1 10.8 54 5.2 S 19 24 10 13 1023.6 1023.6 0.0
28/10:00am 20.7 17.8 11.1 54 5.3 S 17 24 9 13 1023.7 1023.7 0.0
28/09:30am 20.2 16.9 9.7 51 5.6 S 17 24 9 13 1023.7 1023.7 0.0
28/09:00am 19.8 16.5 9.7 52 5.4 S 17 24 9 13 1023.6 1023.6 0.0
28/08:30am 19.2 15.9 9.4 53 5.2 S 17 24 9 13 1023.6 1023.6 0.0
28/08:00am 19.0 15.4 8.4 50 5.5 S 17 22 9 12 1023.6 1023.6 0.0
28/07:30am 18.8 15.5 7.9 49 5.6 S 15 20 8 11 1023.3 1023.3 0.0
28/07:00am 18.2 14.6 8.2 52 5.1 S 17 24 9 13 1023.1 1023.1 0.0
28/06:30am 17.8 13.8 8.1 53 5.0 S 19 26 10 14 1022.3 1022.3 0.0
28/06:00am 17.5 14.2 9.4 59 4.2 S 17 26 9 14 1022.0 1022.0 0.0
28/05:30am 17.4 13.7 9.3 59 4.2 S 19 28 10 15 1021.5 1021.5 0.0
28/05:00am 17.3 13.5 9.7 61 4.0 S 20 28 11 15 1020.9 1020.9 0.0
28/04:30am 17.8 14.0 7.5 51 5.2 S 17 26 9 14 1021.1 1021.1 0.0
28/04:00am 17.7 13.9 7.7 52 5.0 S 17 24 9 13 1021.1 1021.1 0.0
28/03:30am 17.7 14.4 8.0 53 4.9 S 15 26 8 14 1020.9 1020.9 0.0
28/03:00am 17.8 14.4 5.7 45 5.9 S 13 24 7 13 1020.9 1020.9 0.0
28/02:30am 17.9 14.7 6.7 48 5.6 S 13 20 7 11 1020.9 1020.9 0.0
28/02:00am 18.1 14.0 6.3 46 5.8 S 17 24 9 13 1021.0 1021.0 0.0
28/01:30am 17.9 14.9 7.6 51 5.2 SSE 13 19 7 10 1021.2 1021.2 0.0
28/01:00am 18.0 14.6 7.7 51 5.2 S 15 28 8 15 1021.3 1021.3 0.0
28/12:30am 18.0 14.8 6.8 48 5.6 SSE 13 20 7 11 1021.4 1021.4 0.0
28/12:00am 17.8 14.6 7.0 49 5.4 SSE 13 22 7 12 1021.6 1021.6 0.0
 
Date/Time
EST
Temp
°C
App
Temp
°C
Dew
Point
°C
Rel
Hum
%
Delta-T
°C
Wind Press
QNH
hPa
Press
MSL
hPa
Rain since
9am
mm
Dir  Spd
km/h
Gust
km/h
Spd
kts
Gust
kts
27/11:30pm 17.3 15.0 7.4 52 5.0 S 9 17 5 9 1021.6 1021.6 0.0
27/11:00pm 15.0 13.0 7.3 60 3.8 SSE 7 11 4 6 1021.4 1021.4 0.0
27/10:30pm 13.3 11.1 6.2 62 3.4 S 7 11 4 6 1021.4 1021.4 0.0
27/10:00pm 11.9 9.8 6.8 71 2.4 SSW 7 11 4 6 1021.4 1021.4 0.0
27/09:30pm 10.6 9.8 6.4 75 2.0 CALM 0 0 0 0 1021.1 1021.1 0.0
27/09:00pm 10.5 9.6 6.1 74 2.0 CALM 0 0 0 0 1021.2 1021.2 0.0
27/08:30pm 10.8 9.5 6.2 73 2.1 S 2 6 1 3 1021.2 1021.2 0.0
27/08:00pm 11.7 10.2 6.6 71 2.4 S 4 6 2 3 1021.1 1021.1 0.0
27/07:30pm 12.1 10.1 6.2 67 2.8 S 6 7 3 4 1020.8 1020.8 0.0
27/07:00pm 12.6 10.7 6.9 68 2.7 S 6 9 3 5 1020.6 1020.6 0.0
27/06:30pm 13.0 11.4 6.4 64 3.1 S 4 9 2 5 1020.1 1020.1 0.0
27/06:00pm 15.8 13.8 7.1 56 4.3 S 7 9 4 5 1019.8 1019.8 0.0
27/05:30pm 17.0 15.2 7.1 52 4.9 SSW 6 11 3 6 1019.4 1019.4 0.0
27/05:00pm 18.4 15.7 7.2 48 5.6 SSW 11 15 6 8 1019.1 1019.1 0.0
27/04:30pm 19.0 16.2 7.1 46 6.0 S 11 15 6 8 1018.9 1018.9 0.0
27/04:00pm 19.2 16.0 6.7 44 6.2 S 13 19 7 10 1018.8 1018.8 0.0
27/03:30pm 19.4 15.8 6.8 44 6.3 S 15 24 8 13 1018.6 1018.6 0.0
27/03:00pm 19.6 15.7 7.0 44 6.4 SSW 17 24 9 13 1018.7 1018.7 0.0
27/02:30pm 19.7 15.3 7.4 45 6.3 SSW 20 28 11 15 1018.8 1018.8 0.0
27/02:00pm 19.6 15.0 6.7 43 6.5 SSW 20 28 11 15 1018.8 1018.8 0.0
27/01:30pm 19.8 15.7 8.8 49 5.8 SSW 20 30 11 16 1019.0 1019.0 0.0
27/01:00pm 18.5 13.9 8.2 51 5.3 SSW 22 33 12 18 1019.1 1019.1 0.0
27/12:30pm 18.1 13.8 7.8 51 5.2 SSW 20 30 11 16 1019.7 1019.7 0.0
27/12:00pm 18.2 14.1 8.5 53 5.0 SSW 20 32 11 17 1020.1 1020.1 0.0
27/11:30am 18.4 14.4 8.9 54 4.9 SSW 20 28 11 15 1020.5 1020.5 0.0
27/11:00am 17.4 13.1 8.0 54 4.8 SSW 20 30 11 16 1020.4 1020.4 0.0
27/10:30am 16.9 12.5 7.5 54 4.7 SSW 20 28 11 15 1020.7 1020.7 0.0
27/10:00am 16.8 12.0 7.4 54 4.7 SSW 22 32 12 17 1020.9 1020.9 0.0
27/09:30am 16.3 10.9 6.4 52 4.8 SSW 24 35 13 19 1021.2 1021.2 0.0
27/09:00am 16.1 10.2 6.0 51 4.9 SSW 26 37 14 20 1021.3 1021.3 0.2
27/08:30am 16.0 10.4 7.2 56 4.4 SSW 26 41 14 22 1020.8 1020.8 0.2
27/08:00am 15.5 9.5 5.4 51 4.8 SSW 26 35 14 19 1020.5 1020.5 0.2
27/07:30am 15.0 8.3 3.8 47 5.1 SSW 28 37 15 20 1020.4 1020.4 0.2
27/07:00am 14.8 8.7 3.0 45 5.3 SSW 24 35 13 19 1020.5 1020.5 0.2
27/06:30am 14.4 8.4 3.5 48 4.9 SSW 24 37 13 20 1020.8 1020.8 0.2
27/06:00am 14.5 8.6 3.9 49 4.8 SSW 24 35 13 19 1020.3 1020.3 0.2
27/05:30am 14.7 7.6 5.5 54 4.4 SSW 32 43 17 23 1019.5 1019.5 0.2
27/05:00am 14.7 9.0 4.7 51 4.6 SSW 24 43 13 23 1019.3 1019.3 0.2
27/04:30am 15.0 9.4 5.5 53 4.5 SSW 24 37 13 20 1019.0 1019.0 0.2
27/04:00am 15.2 8.8 5.4 52 4.6 SSW 28 39 15 21 1018.9 1018.9 0.2
27/03:30am 15.5 9.4 4.6 48 5.1 SSW 26 41 14 22 1018.7 1018.7 0.2
27/03:00am 15.7 9.3 5.3 50 4.9 SSW 28 41 15 22 1018.7 1018.7 0.2
27/02:30am 15.9 9.2 5.8 51 4.9 SSW 30 43 16 23 1018.7 1018.7 0.2
27/02:00am 16.1 9.5 6.0 51 4.9 SSW 30 44 16 24 1018.9 1018.9 0.2
27/01:41am 16.2 10.2 6.9 54 4.6 SSW 28 46 15 25 1018.8 1018.8 0.2
27/01:30am 16.2 10.2 7.2 55 4.5 SSW 28 43 15 23 1018.8 1018.8 0.2
27/01:00am 16.3 9.7 6.2 51 4.9 SSW 30 43 16 23 1018.9 1018.9 0.2
27/12:30am 16.7 10.8 5.9 49 5.2 SSW 26 43 14 23 1019.0 1019.0 0.2
27/12:00am 16.8 10.3 6.6 51 5.0 SSW 30 44 16 24 1019.1 1019.1 0.2
 
Date/Time
EST
Temp
°C
App
Temp
°C
Dew
Point
°C
Rel
Hum
%
Delta-T
°C
Wind Press
QNH
hPa
Press
MSL
hPa
Rain since
9am
mm
Dir  Spd
km/h
Gust
km/h
Spd
kts
Gust
kts
26/11:30pm 17.0 11.3 6.8 51 5.0 SSW 26 39 14 21 1018.9 1018.9 0.2
26/11:00pm 17.4 10.9 6.3 48 5.4 SSW 30 44 16 24 1018.7 1018.7 0.2
26/10:30pm 18.4 13.2 5.3 42 6.4 SW 22 35 12 19 1018.6 1018.6 0.2
26/10:00pm 18.5 14.6 7.3 48 5.6 SW 17 24 9 13 1018.5 1018.5 0.2
26/09:30pm 18.3 14.8 7.4 49 5.5 SW 15 24 8 13 1018.2 1018.2 0.2
26/09:00pm 18.3 15.4 8.0 51 5.3 WSW 13 24 7 13 1018.0 1018.0 0.2
26/08:30pm 18.2 15.2 7.9 51 5.2 WSW 13 20 7 11 1017.8 1017.8 0.2
26/08:00pm 18.3 15.4 8.0 51 5.3 WSW 13 20 7 11 1017.6 1017.6 0.2
26/07:30pm 18.3 15.2 7.4 49 5.5 WSW 13 20 7 11 1017.4 1017.4 0.2
26/07:00pm 18.6 15.1 7.4 48 5.7 WSW 15 22 8 12 1017.3 1017.3 0.2
26/06:30pm 18.5 15.3 7.0 47 5.8 WSW 13 24 7 13 1017.1 1017.1 0.2
26/06:00pm 18.1 15.2 6.3 46 5.8 SW 11 17 6 9 1016.4 1016.4 0.2
26/05:30pm 17.9 15.4 6.7 48 5.6 SW 9 15 5 8 1016.2 1016.2 0.2
26/05:00pm 17.8 14.5 6.3 47 5.7 SW 13 17 7 9 1015.9 1015.9 0.2
26/04:30pm 17.7 14.8 6.6 48 5.5 SW 11 15 6 8 1015.6 1015.6 0.2
26/04:00pm 18.0 14.0 6.8 48 5.6 SSW 17 24 9 13 1015.2 1015.2 0.2
26/03:30pm 18.2 13.7 7.0 48 5.6 SSW 20 28 11 15 1014.9 1014.9 0.2
26/03:00pm 18.4 13.9 6.3 45 6.0 SSW 19 26 10 14 1014.7 1014.7 0.2
26/02:30pm 18.6 14.4 5.8 43 6.3 S 17 24 9 13 1014.6 1014.6 0.2
26/02:00pm 18.2 13.8 7.3 49 5.5 S 20 28 11 15 1014.7 1014.7 0.2
26/01:30pm 17.3 12.9 7.4 52 5.0 SSW 20 28 11 15 1015.1 1015.1 0.2
26/01:00pm 17.3 13.3 9.0 58 4.3 S 20 28 11 15 1015.2 1015.2 0.2
26/12:30pm 17.5 13.3 8.4 55 4.7 S 20 28 11 15 1015.8 1015.8 0.2

Other Formats:

Comma delimited format used in spreadsheet applications
http://www.bom.gov.au/fwo/IDQ60801/IDQ60801.94388.axf

JavaScript Object Notation format (JSON) in row-major order
http://www.bom.gov.au/fwo/IDQ60801/IDQ60801.94388.json